Terminal Aerodrome Forecast
Issued by NWS Charleston, WV

Current Version | Previous Version | Graphics & Text | Print | Product List | Glossary On
Versions: 1 2 3 4 5 6 7 8 9 10 11 12 13 14 15 16 17 18 19 20 21 22 23 24 25
997
FTUS41 KRLX 152113 AAC
TAFPKB
TAF AMD
KPKB 152113Z 1521/1618 18005KT P6SM FEW045 OVC080
     FM160100 18008KT 4SM -SN OVC025
     FM160400 21004KT 1/2SM SN OVC008
     FM160800 VRB03KT 2SM -SN OVC010
     FM161000 VRB03KT 3SM -SN OVC015
     FM161700 26005KT 6SM -SN BKN024=

USA.gov is the U.S. government's official web portal to all federal, state and local government web resources and services.